Eizo Maru — JD2944 — position and weather

sailwx.info

Track history (hours):
 
Tides and Currents Weather Stations Pressure Air Temp Water Temp Dewpoint Dewpoint Depression Visibility Wind Speed Wind Dir Waves Ship Positions

Eizo Maru

Last reported at 2016-Apr-23 06:10 UTC. Time now 2016-May-02 01:23 UTC.
Position N 34°37' E 135°01'.
Warning: this ship's position is 8 days out of date.

Length 80 m; draft 5.3 m.

Type: Tanker. MMSI: 431000976.

Date/timePositionNaut miles runAvg speedWind from/ knotsBaromVisibWave heightAir tempDewpointWater temp
2016-Apr-23 06:10N 34°37' E 135°01'610.4
2016-Apr-23 05:33N 34°36' E 135°09'8 8.1
2016-Apr-23 04:33N 34°35' E 135°19'5 4.6
2016-Apr-23 03:33N 34°34' E 135°24'2 0.3
2016-Apr-22 22:32N 34°33' E 135°26'5 5.5
2016-Apr-22 21:33N 34°33' E 135°19'1 1.0
2016-Apr-22 20:33N 34°32' E 135°18'1110.9
2016-Apr-22 19:33N 34°25' E 135°08'1212.1
2016-Apr-22 18:32N 34°15' E 134°59'1312.8
2016-Apr-22 17:33N 34°03' E 135°01'  
2016-Apr-20 03:31N 35°13' E 139°46'1212.1
2016-Apr-20 02:33N 35°24' E 139°43'7 7.4
2016-Apr-20 01:33N 35°31' E 139°46'0 0.0
2016-Apr-20 00:32N 35°31' E 139°46'0 0.0
2016-Apr-19 23:29N 35°31' E 139°46'0 0.0
2016-Apr-19 22:33N 35°31' E 139°46'2 2.1
2016-Apr-19 21:31N 35°29' E 139°48'0 0.0
2016-Apr-19 20:31N 35°29' E 139°48'0 0.0
2016-Apr-19 19:31N 35°29' E 139°48'0 0.0
2016-Apr-19 18:31N 35°29' E 139°48'0 0.0
2016-Apr-19 17:31N 35°29' E 139°48'0 0.0
2016-Apr-19 16:31N 35°29' E 139°48'0 0.0
2016-Apr-19 15:32N 35°29' E 139°48'1111.2
2016-Apr-19 14:34N 35°18' E 139°44'1211.7
2016-Apr-19 13:32N 35°06' E 139°44'  
2016-Apr-16 06:33N 35°05' E 139°35'1312.5
2016-Apr-16 05:33N 35°14' E 139°46'1212.0
2016-Apr-16 04:33N 35°25' E 139°44'6 5.7
2016-Apr-16 03:33N 35°31' E 139°46'0 0.0
2016-Apr-16 02:33N 35°31' E 139°46'0 0.0
2016-Apr-16 01:30N 35°31' E 139°46'0 0.0
2016-Apr-16 00:21N 35°31' E 139°46'0 0.0
2016-Apr-15 23:24N 35°31' E 139°46'0 0.0
2016-Apr-15 22:33N 35°31' E 139°46'1 0.9
2016-Apr-15 21:33N 35°30' E 139°45'0 0.0
2016-Apr-15 20:33N 35°30' E 139°45'0 0.0
2016-Apr-15 19:33N 35°30' E 139°45'0 0.0
2016-Apr-15 18:30N 35°30' E 139°45'0 0.0
2016-Apr-15 17:33N 35°30' E 139°45'0 0.0
2016-Apr-15 16:33N 35°30' E 139°45'0 0.0
2016-Apr-15 15:33N 35°30' E 139°45'0 0.0
2016-Apr-15 14:30N 35°30' E 139°45'0 0.0
2016-Apr-15 13:30N 35°30' E 139°45'0 0.0
2016-Apr-15 12:33N 35°30' E 139°45'0 0.0
2016-Apr-15 11:30N 35°30' E 139°45'0 0.0
2016-Apr-15 10:30N 35°30' E 139°45'0 0.0
2016-Apr-15 09:30N 35°30' E 139°45'0 0.0
2016-Apr-15 08:24N 35°30' E 139°45'0 0.0
2016-Apr-15 07:30N 35°30' E 139°45'0 0.0
2016-Apr-15 06:18N 35°30' E 139°45'0 0.0
2016-Apr-15 04:30N 35°30' E 139°45'0 0.0
2016-Apr-15 03:30N 35°30' E 139°45'4 4.3
2016-Apr-15 02:33N 35°27' E 139°48'1111.4
2016-Apr-15 01:33N 35°15' E 139°47'24411.0
2016-Apr-14 03:23N 34°05' E 135°02'5 4.7
2016-Apr-14 02:22N 34°07' E 135°08'0 0.0
2016-Apr-14 01:28N 34°07' E 135°08'0 0.0
2016-Apr-13 23:16N 34°07' E 135°08'0 0.0
2016-Apr-13 21:25N 34°07' E 135°08'0 0.0
2016-Apr-13 16:31N 34°07' E 135°08'0 0.1
2016-Apr-13 15:28N 34°07' E 135°08'2 0.3
2016-Apr-13 08:33N 34°09' E 135°06'2310.0
2016-Apr-13 06:16N 34°30' E 135°15'  
Track history (hours):
 
Tides and Currents Weather Stations Pressure Air Temp Water Temp Dewpoint Dewpoint Depression Visibility Wind Speed Wind Dir Waves Ship Positions

Eizo Maru

Last reported at 2016-Apr-23 06:10 UTC. Time now 2016-May-02 01:23 UTC.
Position N 34°37' E 135°01'.
Warning: this ship's position is 8 days out of date.

Length 80 m; draft 5.3 m.

Type: Tanker. MMSI: 431000976.

Date/timePositionNaut miles runAvg speedWind from/ knotsBaromVisibWave heightAir tempDewpointWater temp
2016-Apr-23 06:10N 34°37' E 135°01'610.4
2016-Apr-23 05:33N 34°36' E 135°09'8 8.1
2016-Apr-23 04:33N 34°35' E 135°19'5 4.6
2016-Apr-23 03:33N 34°34' E 135°24'2 0.3
2016-Apr-22 22:32N 34°33' E 135°26'5 5.5
2016-Apr-22 21:33N 34°33' E 135°19'1 1.0
2016-Apr-22 20:33N 34°32' E 135°18'1110.9
2016-Apr-22 19:33N 34°25' E 135°08'1212.1
2016-Apr-22 18:32N 34°15' E 134°59'1312.8
2016-Apr-22 17:33N 34°03' E 135°01'  
2016-Apr-20 03:31N 35°13' E 139°46'1212.1
2016-Apr-20 02:33N 35°24' E 139°43'7 7.4
2016-Apr-20 01:33N 35°31' E 139°46'0 0.0
2016-Apr-20 00:32N 35°31' E 139°46'0 0.0
2016-Apr-19 23:29N 35°31' E 139°46'0 0.0
2016-Apr-19 22:33N 35°31' E 139°46'2 2.1
2016-Apr-19 21:31N 35°29' E 139°48'0 0.0
2016-Apr-19 20:31N 35°29' E 139°48'0 0.0
2016-Apr-19 19:31N 35°29' E 139°48'0 0.0
2016-Apr-19 18:31N 35°29' E 139°48'0 0.0
2016-Apr-19 17:31N 35°29' E 139°48'0 0.0
2016-Apr-19 16:31N 35°29' E 139°48'0 0.0
2016-Apr-19 15:32N 35°29' E 139°48'1111.2
2016-Apr-19 14:34N 35°18' E 139°44'1211.7
2016-Apr-19 13:32N 35°06' E 139°44'  
2016-Apr-16 06:33N 35°05' E 139°35'1312.5
2016-Apr-16 05:33N 35°14' E 139°46'1212.0
2016-Apr-16 04:33N 35°25' E 139°44'6 5.7
2016-Apr-16 03:33N 35°31' E 139°46'0 0.0
2016-Apr-16 02:33N 35°31' E 139°46'0 0.0
2016-Apr-16 01:30N 35°31' E 139°46'0 0.0
2016-Apr-16 00:21N 35°31' E 139°46'0 0.0
2016-Apr-15 23:24N 35°31' E 139°46'0 0.0
2016-Apr-15 22:33N 35°31' E 139°46'1 0.9
2016-Apr-15 21:33N 35°30' E 139°45'0 0.0
2016-Apr-15 20:33N 35°30' E 139°45'0 0.0
2016-Apr-15 19:33N 35°30' E 139°45'0 0.0
2016-Apr-15 18:30N 35°30' E 139°45'0 0.0
2016-Apr-15 17:33N 35°30' E 139°45'0 0.0
2016-Apr-15 16:33N 35°30' E 139°45'0 0.0
2016-Apr-15 15:33N 35°30' E 139°45'0 0.0
2016-Apr-15 14:30N 35°30' E 139°45'0 0.0
2016-Apr-15 13:30N 35°30' E 139°45'0 0.0
2016-Apr-15 12:33N 35°30' E 139°45'0 0.0
2016-Apr-15 11:30N 35°30' E 139°45'0 0.0
2016-Apr-15 10:30N 35°30' E 139°45'0 0.0
2016-Apr-15 09:30N 35°30' E 139°45'0 0.0
2016-Apr-15 08:24N 35°30' E 139°45'0 0.0
2016-Apr-15 07:30N 35°30' E 139°45'0 0.0
2016-Apr-15 06:18N 35°30' E 139°45'0 0.0
2016-Apr-15 04:30N 35°30' E 139°45'0 0.0
2016-Apr-15 03:30N 35°30' E 139°45'4 4.3
2016-Apr-15 02:33N 35°27' E 139°48'1111.4
2016-Apr-15 01:33N 35°15' E 139°47'24411.0
2016-Apr-14 03:23N 34°05' E 135°02'5 4.7
2016-Apr-14 02:22N 34°07' E 135°08'0 0.0
2016-Apr-14 01:28N 34°07' E 135°08'0 0.0
2016-Apr-13 23:16N 34°07' E 135°08'0 0.0
2016-Apr-13 21:25N 34°07' E 135°08'0 0.0
2016-Apr-13 16:31N 34°07' E 135°08'0 0.1
2016-Apr-13 15:28N 34°07' E 135°08'2 0.3
2016-Apr-13 08:33N 34°09' E 135°06'2310.0
2016-Apr-13 06:16N 34°30' E 135°15'  

Dump ship's entire track history